createdAt,value
2023-03-05T00:02:48.607Z,4.30
2023-03-05T00:06:50.854Z,4.30
2023-03-05T00:11:04.847Z,4.30
2023-03-05T00:15:08.040Z,4.30
2023-03-05T00:19:13.318Z,4.30
2023-03-05T00:23:17.750Z,4.30
2023-03-05T00:27:28.097Z,4.20
2023-03-05T00:31:33.956Z,4.30
2023-03-05T00:35:45.626Z,4.20
2023-03-05T00:39:49.930Z,4.20
2023-03-05T00:43:51.990Z,4.20
2023-03-05T00:48:01.457Z,4.20
2023-03-05T00:52:08.608Z,4.20
2023-03-05T00:56:10.661Z,4.10
2023-03-05T01:00:13.997Z,4.10
2023-03-05T01:04:16.026Z,4.10
2023-03-05T01:08:17.924Z,4.10
2023-03-05T01:12:19.900Z,4.10
2023-03-05T01:16:21.954Z,4.10
2023-03-05T01:20:27.011Z,4.10
2023-03-05T01:24:32.182Z,4.00
2023-03-05T01:28:44.328Z,4.00
2023-03-05T01:32:46.179Z,4.00
2023-03-05T01:36:50.552Z,4.00
2023-03-05T01:40:52.605Z,3.90
2023-03-05T01:45:11.391Z,3.90
2023-03-05T01:49:25.555Z,3.80
2023-03-05T01:53:27.639Z,3.80
2023-03-05T01:57:33.948Z,3.80
2023-03-05T02:01:46.582Z,3.70
2023-03-05T02:05:52.196Z,3.70
2023-03-05T02:09:56.999Z,3.70
2023-03-05T02:13:59.119Z,3.70
2023-03-05T02:18:01.465Z,3.80
2023-03-05T02:22:07.555Z,3.70
2023-03-05T02:26:10.887Z,3.70
2023-03-05T02:30:13.178Z,3.60
2023-03-05T02:34:18.187Z,3.60
2023-03-05T02:38:22.579Z,3.60
2023-03-05T02:42:24.515Z,3.60
2023-03-05T02:46:26.539Z,3.60
2023-03-05T02:50:28.858Z,3.50
2023-03-05T02:54:30.865Z,3.60
2023-03-05T02:58:32.855Z,3.50
2023-03-05T03:02:40.864Z,3.50
2023-03-05T03:06:48.850Z,3.40
2023-03-05T03:10:56.908Z,3.30
2023-03-05T03:15:13.789Z,3.40
2023-03-05T03:19:22.815Z,3.40
2023-03-05T03:23:30.910Z,3.40
2023-03-05T03:27:32.857Z,3.40
2023-03-05T03:31:35.017Z,3.40
2023-03-05T03:35:36.916Z,3.40
2023-03-05T03:39:38.717Z,3.40
2023-03-05T03:43:41.665Z,3.30
2023-03-05T03:47:43.537Z,3.40
2023-03-05T03:51:48.721Z,3.30
2023-03-05T03:55:50.644Z,3.30
2023-03-05T03:59:52.701Z,3.30
2023-03-05T04:03:54.532Z,3.20
2023-03-05T04:07:58.424Z,3.30
2023-03-05T04:12:00.326Z,3.20
2023-03-05T04:16:02.208Z,3.20
2023-03-05T04:20:06.088Z,3.20
2023-03-05T04:24:08.696Z,3.20
2023-03-05T04:28:10.797Z,3.20
2023-03-05T04:32:12.597Z,3.20
2023-03-05T04:36:14.399Z,3.20
2023-03-05T04:40:19.456Z,3.10
2023-03-05T04:44:23.408Z,3.10
2023-03-05T04:48:25.272Z,3.20
2023-03-05T04:52:27.114Z,3.10
2023-03-05T04:56:29.049Z,3.10
2023-03-05T05:00:30.955Z,3.10
2023-03-05T05:04:33.035Z,3.10
2023-03-05T05:08:34.928Z,3.00
2023-03-05T05:12:36.895Z,3.00
2023-03-05T05:16:38.685Z,3.00
2023-03-05T05:20:40.571Z,2.90
2023-03-05T05:24:42.553Z,2.90
2023-03-05T05:28:44.456Z,2.80
2023-03-05T05:32:47.431Z,2.80
2023-03-05T05:36:49.270Z,2.70
2023-03-05T05:40:51.104Z,2.80
2023-03-05T05:44:53.362Z,2.80
2023-03-05T05:48:57.520Z,2.80
2023-03-05T05:52:59.408Z,2.90
2023-03-05T05:57:01.616Z,2.90
2023-03-05T06:01:03.734Z,3.00
2023-03-05T06:05:06.718Z,3.00
2023-03-05T06:09:08.669Z,3.10
2023-03-05T06:13:10.993Z,3.10
2023-03-05T06:17:21.860Z,3.10
2023-03-05T06:21:27.315Z,3.20
2023-03-05T06:25:31.677Z,3.20
2023-03-05T06:29:34.990Z,3.30
2023-03-05T06:33:49.847Z,3.30
2023-03-05T06:37:51.743Z,3.40
2023-03-05T06:42:02.321Z,3.50
2023-03-05T06:46:21.312Z,3.50
2023-03-05T06:50:26.557Z,3.50
2023-03-05T06:54:28.427Z,3.50
2023-03-05T06:58:34.572Z,3.60
2023-03-05T07:02:38.205Z,3.60
2023-03-05T07:06:40.473Z,3.60
2023-03-05T07:10:46.092Z,3.60
2023-03-05T07:14:48.060Z,3.60
2023-03-05T07:18:49.845Z,3.70
2023-03-05T07:22:57.728Z,3.70
2023-03-05T07:27:07.058Z,3.80
2023-03-05T07:31:17.007Z,3.80
2023-03-05T07:35:24.797Z,3.90
2023-03-05T07:39:26.732Z,3.80
2023-03-05T07:43:34.983Z,3.80
2023-03-05T07:47:39.294Z,3.80
2023-03-05T07:51:41.424Z,3.90
2023-03-05T07:55:49.587Z,4.00
2023-03-05T07:59:51.486Z,4.00
2023-03-05T08:03:53.634Z,4.20
2023-03-05T08:07:55.846Z,4.30
2023-03-05T08:11:57.640Z,4.30
2023-03-05T08:15:59.660Z,4.30
2023-03-05T08:20:05.490Z,4.10
2023-03-05T08:24:08.533Z,4.10
2023-03-05T08:28:12.659Z,4.20
2023-03-05T08:32:14.676Z,4.90
2023-03-05T08:36:16.660Z,5.00
2023-03-05T08:40:19.574Z,5.10
2023-03-05T08:44:27.695Z,5.50
2023-03-05T08:48:34.630Z,5.80
2023-03-05T08:52:37.064Z,6.10
2023-03-05T08:56:41.888Z,6.40
2023-03-05T09:00:43.892Z,6.50
2023-03-05T09:04:45.901Z,6.10
2023-03-05T09:08:47.769Z,5.90
2023-03-05T09:12:49.723Z,5.60
2023-03-05T09:16:53.989Z,5.50
2023-03-05T09:21:11.707Z,5.40
2023-03-05T09:25:24.770Z,5.40
2023-03-05T09:29:29.128Z,5.20
2023-03-05T09:33:32.754Z,5.30
2023-03-05T09:37:34.891Z,5.10
2023-03-05T09:42:06.006Z,5.10
2023-03-05T09:46:25.408Z,5.10
2023-03-05T09:50:45.124Z,5.30
2023-03-05T09:54:50.556Z,5.40
2023-03-05T09:59:22.218Z,5.70
2023-03-05T10:03:45.545Z,6.10
2023-03-05T10:08:01.339Z,6.70
2023-03-05T10:12:07.644Z,6.80
2023-03-05T10:16:52.615Z,7.10
2023-03-05T10:21:14.607Z,7.10
2023-03-05T10:25:53.400Z,7.00
2023-03-05T10:30:32.913Z,6.90
2023-03-05T10:34:46.796Z,6.80
2023-03-05T10:39:46.708Z,7.00
2023-03-05T10:44:11.851Z,7.00
2023-03-05T10:48:34.042Z,6.90
2023-03-05T10:52:41.029Z,6.90
2023-03-05T10:56:42.964Z,6.70
2023-03-05T11:01:23.742Z,6.60
2023-03-05T11:05:43.272Z,6.60
2023-03-05T11:10:25.888Z,6.50
2023-03-05T11:14:33.570Z,6.40
2023-03-05T11:18:38.232Z,6.50
2023-03-05T11:23:24.013Z,6.70
2023-03-05T11:27:48.959Z,6.40
2023-03-05T11:31:52.898Z,6.20
2023-03-05T11:36:26.133Z,6.30
2023-03-05T11:40:46.874Z,6.40
2023-03-05T11:45:20.342Z,6.60
2023-03-05T11:49:29.340Z,6.50
2023-03-05T11:53:37.540Z,6.40
2023-03-05T11:58:29.383Z,6.30
2023-03-05T12:02:50.211Z,6.20
2023-03-05T12:07:11.764Z,6.10
2023-03-05T12:11:21.252Z,6.20
2023-03-05T12:15:59.967Z,6.30
2023-03-05T12:20:14.839Z,6.40
2023-03-05T12:24:28.146Z,6.30
2023-03-05T12:28:36.798Z,6.40
2023-03-05T12:32:45.110Z,6.40
2023-03-05T12:37:01.060Z,6.30
2023-03-05T12:41:56.930Z,6.30
2023-03-05T12:46:33.019Z,6.20
2023-03-05T12:50:40.834Z,6.20
2023-03-05T12:55:21.186Z,6.00
2023-03-05T13:04:27.475Z,5.70
2023-03-05T13:08:40.297Z,5.80
2023-03-05T13:12:55.018Z,6.00
2023-03-05T13:17:32.390Z,6.20
2023-03-05T13:21:37.765Z,6.30
2023-03-05T13:25:39.905Z,6.20
2023-03-05T13:29:52.720Z,6.10
2023-03-05T13:34:08.891Z,6.00
2023-03-05T13:38:47.640Z,6.00
2023-03-05T13:42:58.455Z,5.90
2023-03-05T13:47:25.151Z,5.80
2023-03-05T13:52:04.940Z,5.80
2023-03-05T13:56:23.074Z,5.80
2023-03-05T14:00:37.400Z,5.80
2023-03-05T14:04:46.723Z,5.80
2023-03-05T14:08:53.261Z,5.80
2023-03-05T14:13:07.747Z,5.80
2023-03-05T14:17:27.803Z,5.80
2023-03-05T14:22:15.224Z,5.90
2023-03-05T14:26:32.604Z,5.60
2023-03-05T14:30:36.261Z,5.20
2023-03-05T14:34:42.299Z,5.00
2023-03-05T14:38:47.967Z,4.80
2023-03-05T14:43:07.242Z,4.80
2023-03-05T14:47:09.214Z,4.90
2023-03-05T14:51:21.792Z,4.90
2023-03-05T14:55:27.505Z,4.90
2023-03-05T14:59:32.282Z,4.90
2023-03-05T15:03:38.322Z,4.80
2023-03-05T15:07:47.652Z,4.70
2023-03-05T15:11:53.038Z,4.60
2023-03-05T15:15:58.992Z,4.60
2023-03-05T15:20:13.456Z,4.50
2023-03-05T15:24:18.234Z,4.40
2023-03-05T15:28:23.529Z,4.50
2023-03-05T15:32:44.540Z,4.50
2023-03-05T15:36:53.356Z,4.60
2023-03-05T15:41:01.765Z,4.60
2023-03-05T15:45:09.947Z,4.60
2023-03-05T15:49:12.137Z,4.60
2023-03-05T15:53:22.407Z,4.70
2023-03-05T15:57:24.919Z,4.70
2023-03-05T16:01:27.617Z,4.70
2023-03-05T16:05:29.588Z,4.70
2023-03-05T16:09:41.289Z,4.70
2023-03-05T16:13:43.317Z,4.70
2023-03-05T16:17:48.731Z,4.70
2023-03-05T16:21:50.564Z,4.80
2023-03-05T16:25:52.522Z,4.70
2023-03-05T16:29:54.416Z,4.70
2023-03-05T16:33:56.370Z,4.70
2023-03-05T16:37:59.075Z,4.60
2023-03-05T16:42:08.567Z,4.60
2023-03-05T16:46:15.543Z,4.70
2023-03-05T16:50:19.809Z,4.60
2023-03-05T16:54:22.203Z,4.60
2023-03-05T16:58:24.160Z,4.60
2023-03-05T17:02:30.282Z,4.60
2023-03-05T17:06:34.958Z,4.60
2023-03-05T17:10:39.073Z,4.60
2023-03-05T17:14:41.496Z,4.50
2023-03-05T17:18:43.363Z,4.40
2023-03-05T17:22:45.301Z,4.40
2023-03-05T17:26:50.890Z,4.50
2023-03-05T17:30:55.532Z,4.50
2023-03-05T17:35:00.153Z,4.50
2023-03-05T17:39:04.610Z,4.50
2023-03-05T17:43:07.401Z,4.40
2023-03-05T17:47:12.000Z,4.40
2023-03-05T17:51:14.249Z,4.30
2023-03-05T17:55:18.576Z,4.30
2023-03-05T17:59:24.544Z,4.30
2023-03-05T18:03:29.425Z,4.30
2023-03-05T18:07:31.361Z,4.40
2023-03-05T18:11:42.152Z,4.40
2023-03-05T18:16:02.582Z,4.40
2023-03-05T18:20:43.672Z,4.40
2023-03-05T18:24:46.446Z,4.40
2023-03-05T18:28:48.347Z,4.40
2023-03-05T18:32:51.339Z,4.40
2023-03-05T18:36:53.623Z,4.30
2023-03-05T18:40:56.650Z,4.30
2023-03-05T18:44:59.454Z,4.30
2023-03-05T18:49:01.611Z,4.30
2023-03-05T18:53:06.909Z,4.30
2023-03-05T18:57:15.834Z,4.10
2023-03-05T19:01:18.007Z,4.00
2023-03-05T19:05:27.523Z,3.90
2023-03-05T19:09:51.596Z,4.00
2023-03-05T19:13:58.684Z,4.00
2023-03-05T19:18:22.198Z,4.10
2023-03-05T19:22:34.302Z,4.10
2023-03-05T19:26:43.787Z,4.20
2023-03-05T19:30:51.773Z,4.20
2023-03-05T19:35:00.034Z,4.20
2023-03-05T19:39:37.051Z,4.30
2023-03-05T19:43:49.291Z,4.30
2023-03-05T19:47:54.865Z,4.30
2023-03-05T19:51:57.429Z,4.40
2023-03-05T19:56:03.452Z,4.40
2023-03-05T20:00:06.073Z,4.40
2023-03-05T20:04:09.273Z,4.50
2023-03-05T20:08:13.306Z,4.40
2023-03-05T20:12:15.396Z,4.40
2023-03-05T20:16:18.336Z,4.40
2023-03-05T20:20:21.654Z,4.40
2023-03-05T20:24:26.039Z,4.50
2023-03-05T20:28:31.312Z,4.40
2023-03-05T20:32:43.396Z,4.30
2023-03-05T20:36:51.872Z,4.20
2023-03-05T20:40:59.093Z,4.20
2023-03-05T20:45:03.737Z,4.20
2023-03-05T20:49:10.044Z,4.20
2023-03-05T20:53:18.644Z,4.20
2023-03-05T20:57:20.845Z,4.20
2023-03-05T21:01:26.126Z,4.20
2023-03-05T21:05:34.425Z,4.20
2023-03-05T21:09:36.362Z,4.10
2023-03-05T21:13:50.868Z,4.10
2023-03-05T21:17:52.982Z,4.10
2023-03-05T21:21:55.252Z,4.20
2023-03-05T21:25:57.206Z,4.20
2023-03-05T21:29:59.280Z,4.20
2023-03-05T21:34:01.416Z,4.20
2023-03-05T21:38:08.664Z,4.20
2023-03-05T21:42:13.243Z,4.30
2023-03-05T21:46:15.100Z,4.30
2023-03-05T21:50:17.138Z,4.10
2023-03-05T21:54:19.116Z,4.10
2023-03-05T21:58:21.153Z,4.00
2023-03-05T22:02:24.313Z,4.00
2023-03-05T22:06:26.089Z,4.00
2023-03-05T22:10:30.590Z,4.00
2023-03-05T22:14:32.589Z,4.00
2023-03-05T22:18:34.601Z,4.00
2023-03-05T22:22:36.554Z,4.00
2023-03-05T22:26:40.045Z,4.00
2023-03-05T22:30:45.220Z,3.90
2023-03-05T22:34:47.029Z,4.00
2023-03-05T22:38:48.931Z,4.00
2023-03-05T22:42:51.972Z,4.00
2023-03-05T22:46:53.736Z,4.00
2023-03-05T22:50:56.020Z,4.00
2023-03-05T22:54:57.847Z,4.00
2023-03-05T22:58:59.730Z,4.00
2023-03-05T23:03:01.705Z,4.00
2023-03-05T23:07:03.748Z,4.00
2023-03-05T23:11:10.163Z,4.10
2023-03-05T23:15:16.057Z,4.00
2023-03-05T23:19:17.882Z,4.00
2023-03-05T23:23:20.405Z,4.00
2023-03-05T23:27:22.379Z,4.10
2023-03-05T23:31:26.498Z,4.10
2023-03-05T23:35:34.393Z,4.10
2023-03-05T23:39:36.381Z,4.10
2023-03-05T23:43:38.197Z,4.10
2023-03-05T23:47:40.168Z,4.10
2023-03-05T23:51:41.969Z,4.10
2023-03-05T23:55:44.185Z,4.10
2023-03-05T23:59:46.146Z,4.10
